This is the latest recevied weather packets stored in our database for station/object DL8TF-13. If no packets are shown the sender has not sent any weather packets the latest 10 day(s).
| Time | Temp. | Humidity | Pressure | Rain* | Wind** | Luminosity | Snow |
|---|---|---|---|---|---|---|---|
| 1778310885 | 13.33° C | 76% | 986 hPa | - | - | - | - |
| 1778310285 | 12.78° C | 80% | 986 hPa | - | - | - | - |
| 1778309685 | 12.78° C | 77% | 986 hPa | - | - | - | - |
| 1778309084 | 12.78° C | 79% | 986 hPa | - | - | - | - |
| 1778308484 | 12.22° C | 82% | 986 hPa | - | - | - | - |
| 1778307884 | 12.22° C | 80% | 986 hPa | - | - | - | - |
| 1778307284 | 11.67° C | 83% | 986 hPa | - | - | - | - |
| 1778306684 | 11.11° C | 84% | 986 hPa | - | - | - | - |
| 1778306084 | 11.11° C | 83% | 986 hPa | - | - | - | - |
| 1778305484 | 11.11° C | 83% | 986 hPa | - | - | - | - |
| 1778304884 | 11.11° C | 83% | 986 hPa | - | - | - | - |
| 1778304284 | 10.56° C | 84% | 986 hPa | - | - | - | - |
| 1778303684 | 10.56° C | 82% | 986 hPa | - | - | - | - |
| 1778303084 | 10.56° C | 83% | 986 hPa | - | - | - | - |
| 1778302484 | 10° C | 85% | 986 hPa | - | - | - | - |
| 1778301884 | 9.44° C | 85% | 986 hPa | - | - | - | - |
| 1778301284 | 9.44° C | 84% | 986 hPa | - | - | - | - |
| 1778300684 | 9.44° C | 83% | 986 hPa | - | - | - | - |
| 1778300084 | 9.44° C | 83% | 986 hPa | - | - | - | - |
| 1778299484 | 9.44° C | 84% | 986 hPa | - | - | - | - |
| 1778298883 | 9.44° C | 87% | 986 hPa | - | - | - | - |
| 1778298283 | 9.44° C | 86% | 986 hPa | - | - | - | - |
| 1778297683 | 9.44° C | 85% | 986 hPa | - | - | - | - |
| 1778297083 | 10° C | 82% | 986 hPa | - | - | - | - |
| 1778296483 | 9.44° C | 85% | 986 hPa | - | - | - | - |
* Rain since midnight (hover to see other rain measurements)
** Current wind speed in m/s (hover to see current wind gust speed)